Time;durP1;ratioP1;P1;durP2;ratioP2;P2;SDS_P1;SDS_P2;PMS_P1;PMS_P2;Temp;Humidity;BMP_temperature;BMP_pressure;BME280_temperature;BME280_humidity;BME280_pressure;Samples;Min_cycle;Max_cycle;Signal;HPM_P1;HPM_P2
2022/09/11 00:01:32;;;;;;;8.68;3.80;;;;;;;-144.48;100.00;62369.91;4991021;28;20488;-69
2022/09/11 00:03:58;;;;;;;7.47;3.92;;;;;;;-144.48;100.00;62369.91;4991088;28;20104;-69
2022/09/11 00:06:25;;;;;;;6.13;3.13;;;;;;;-144.48;100.00;62369.91;4989263;28;20108;-66
2022/09/11 00:08:59;;;;;;;7.15;3.65;;;;;;;-144.48;100.00;62369.91;4990154;28;20076;-68
2022/09/11 00:11:26;;;;;;;6.75;3.67;;;;;;;-144.48;100.00;62369.91;4985129;28;20041;-68
2022/09/11 00:13:53;;;;;;;7.50;4.00;;;;;;;-144.48;100.00;62369.91;4990815;28;20034;-68
2022/09/11 00:16:32;;;;;;;6.72;3.45;;;;;;;-144.48;100.00;62369.91;4990261;28;20655;-69
2022/09/11 00:19:00;;;;;;;8.85;4.47;;;;;;;-144.48;100.00;62369.91;4990577;28;20041;-69
2022/09/11 00:21:26;;;;;;;9.75;3.70;;;;;;;-144.48;100.00;62369.91;4989962;28;20030;-68
2022/09/11 00:23:52;;;;;;;7.07;3.53;;;;;;;-144.48;100.00;62369.91;4990250;28;20478;-69
2022/09/11 00:26:18;;;;;;;10.45;3.95;;;;;;;-144.48;100.00;62369.91;4990021;28;20105;-68
2022/09/11 00:28:45;;;;;;;11.75;4.07;;;;;;;-144.48;100.00;62369.91;4990452;28;20476;-69
2022/09/11 00:31:13;;;;;;;8.63;3.78;;;;;;;-144.48;100.00;62369.91;4987247;28;20046;-69
2022/09/11 00:33:39;;;;;;;6.70;3.63;;;;;;;-144.48;100.00;62369.91;4992145;28;20054;-70
2022/09/11 00:36:13;;;;;;;8.95;4.38;;;;;;;-144.48;100.00;62369.91;4989495;28;20054;-68
2022/09/11 00:38:39;;;;;;;8.35;3.80;;;;;;;-144.48;100.00;62369.91;4989150;28;20485;-68
2022/09/11 00:41:09;;;;;;;8.80;4.40;;;;;;;-144.48;100.00;62369.91;4989085;28;20053;-67
2022/09/11 00:43:54;;;;;;;7.28;4.10;;;;;;;-144.48;100.00;62369.91;4990065;28;20030;-66
2022/09/11 00:46:21;;;;;;;6.97;3.75;;;;;;;-144.48;100.00;62369.91;4989663;28;20396;-68
2022/09/11 00:48:48;;;;;;;7.97;4.43;;;;;;;-144.48;100.00;62369.91;4990210;28;20533;-69
2022/09/11 00:51:18;;;;;;;10.07;4.78;;;;;;;-144.48;100.00;62369.91;4989715;28;20190;-70
2022/09/11 00:53:45;;;;;;;10.88;4.07;;;;;;;-144.48;100.00;62369.91;4989496;28;20034;-69
2022/09/11 00:56:11;;;;;;;8.50;4.82;;;;;;;-144.48;100.00;62369.91;4989761;28;20072;-70
2022/09/11 00:58:41;;;;;;;9.25;5.03;;;;;;;-144.48;100.00;62369.91;4988948;28;20023;-70
2022/09/11 01:01:07;;;;;;;7.88;3.88;;;;;;;-144.48;100.00;62369.91;4989946;28;20054;-70
2022/09/11 01:03:33;;;;;;;12.80;4.78;;;;;;;-144.48;100.00;62369.91;4989799;28;20299;-68
2022/09/11 01:05:58;;;;;;;13.60;5.00;;;;;;;-144.48;100.00;62369.91;4989288;28;20102;-68
2022/09/11 01:08:24;;;;;;;12.77;5.45;;;;;;;-144.48;100.00;62369.91;4989155;28;20029;-68
2022/09/11 01:10:58;;;;;;;18.67;8.50;;;;;;;-144.48;100.00;62369.91;4988706;28;20075;-68
2022/09/11 01:13:26;;;;;;;15.15;7.47;;;;;;;-144.48;100.00;62369.91;4989985;28;20041;-67
2022/09/11 01:16:08;;;;;;;12.90;6.30;;;;;;;-144.48;100.00;62369.91;4989863;28;20027;-68
2022/09/11 01:18:44;;;;;;;9.77;4.65;;;;;;;-144.48;100.00;62369.91;4987549;28;20042;-68
2022/09/11 01:21:15;;;;;;;9.10;4.72;;;;;;;-144.48;100.00;62369.91;4986224;28;20101;-68
2022/09/11 01:24:14;;;;;;;7.47;4.57;;;;;;;-144.48;100.00;62369.91;4987974;28;20118;-69
2022/09/11 01:27:00;;;;;;;8.02;4.43;;;;;;;-144.48;100.00;62369.91;4988969;28;20030;-68
2022/09/11 01:29:38;;;;;;;10.23;5.05;;;;;;;-144.48;100.00;62369.91;4988386;28;20018;-70
2022/09/11 01:32:18;;;;;;;10.65;4.88;;;;;;;-144.48;100.00;62369.91;4989632;28;20680;-68
2022/09/11 01:34:47;;;;;;;10.52;4.80;;;;;;;-144.48;100.00;62369.91;4987896;28;20471;-68
2022/09/11 01:37:20;;;;;;;10.13;4.65;;;;;;;-144.48;100.00;62369.91;4985212;28;20083;-69
2022/09/11 01:39:53;;;;;;;12.45;5.63;;;;;;;-144.48;100.00;62369.91;4988733;28;20041;-68
2022/09/11 01:42:22;;;;;;;10.00;5.20;;;;;;;-144.48;100.00;62369.91;4989202;28;20084;-67
2022/09/11 01:44:52;;;;;;;10.32;5.15;;;;;;;-144.48;100.00;62369.91;4989571;28;20022;-68
2022/09/11 01:47:19;;;;;;;13.20;6.30;;;;;;;-144.48;100.00;62369.91;4989030;28;20064;-69
2022/09/11 01:49:53;;;;;;;14.20;6.22;;;;;;;-144.48;100.00;62369.91;4988564;28;20053;-68
2022/09/11 01:52:26;;;;;;;11.35;6.40;;;;;;;-144.48;100.00;62369.91;4989878;28;20512;-70
2022/09/11 01:55:03;;;;;;;10.65;6.35;;;;;;;-144.48;100.00;62369.91;4988660;28;20506;-69
2022/09/11 01:57:38;;;;;;;9.32;5.60;;;;;;;-144.48;100.00;62369.91;4989003;28;20153;-70
2022/09/11 02:00:09;;;;;;;12.05;6.13;;;;;;;-144.48;100.00;62369.91;4989555;28;20026;-69
2022/09/11 02:02:39;;;;;;;13.90;6.07;;;;;;;-144.48;100.00;62369.91;4989275;28;20037;-68
2022/09/11 02:05:10;;;;;;;11.45;6.57;;;;;;;-144.48;100.00;62369.91;4988220;28;20443;-67
2022/09/11 02:07:51;;;;;;;12.93;6.43;;;;;;;-144.48;100.00;62369.91;4987682;28;20033;-68
2022/09/11 02:10:29;;;;;;;10.63;6.35;;;;;;;-144.48;100.00;62369.91;4988712;28;20145;-67
2022/09/11 02:13:11;;;;;;;12.70;6.72;;;;;;;-144.48;100.00;62369.91;4984794;28;20423;-68
2022/09/11 02:15:46;;;;;;;10.80;6.80;;;;;;;-144.48;100.00;62369.91;4989483;28;20022;-70
2022/09/11 02:18:23;;;;;;;12.10;6.88;;;;;;;-144.48;100.00;62369.91;4988565;28;20069;-68
2022/09/11 02:20:50;;;;;;;13.60;7.25;;;;;;;-144.48;100.00;62369.91;4989068;28;20019;-68
2022/09/11 02:23:16;;;;;;;13.07;7.18;;;;;;;-144.48;100.00;62369.91;4989164;28;20076;-68
2022/09/11 02:25:41;;;;;;;12.88;7.30;;;;;;;-144.48;100.00;62369.91;4992333;28;20022;-68
2022/09/11 02:28:07;;;;;;;14.73;7.72;;;;;;;-144.48;100.00;62369.91;4992134;28;20109;-67
2022/09/11 02:30:32;;;;;;;14.93;7.72;;;;;;;-144.48;100.00;62369.91;4992860;28;20041;-69
2022/09/11 02:32:57;;;;;;;14.68;7.30;;;;;;;-144.48;100.00;62369.91;4994419;28;20034;-68
2022/09/11 02:35:31;;;;;;;15.63;8.38;;;;;;;-144.48;100.00;62369.91;4991712;28;20124;-69
2022/09/11 02:38:14;;;;;;;12.38;7.22;;;;;;;-144.48;100.00;62369.91;4992252;28;20034;-70
2022/09/11 02:40:54;;;;;;;12.55;7.97;;;;;;;-144.48;100.00;62369.91;4990974;28;20057;-69
2022/09/11 02:43:22;;;;;;;12.07;7.53;;;;;;;-144.48;100.00;62369.91;4992629;28;20034;-69
2022/09/11 02:45:56;;;;;;;17.17;7.77;;;;;;;-144.48;100.00;62369.91;4993225;28;20030;-69
2022/09/11 02:48:31;;;;;;;16.20;8.02;;;;;;;-144.48;100.00;62369.91;4990884;28;20607;-68
2022/09/11 02:51:27;;;;;;;14.85;8.13;;;;;;;-144.48;100.00;62369.91;4992162;28;20165;-69
2022/09/11 02:54:30;;;;;;;14.27;8.07;;;;;;;-144.48;100.00;62369.91;4981432;28;20452;-69
2022/09/11 02:57:33;;;;;;;17.08;7.30;;;;;;;-144.48;100.00;62369.91;4990472;28;20461;-68
2022/09/11 03:00:02;;;;;;;14.55;7.93;;;;;;;-144.48;100.00;62369.91;4989870;28;20149;-69
2022/09/11 03:02:30;;;;;;;12.20;7.55;;;;;;;-144.48;100.00;62369.91;4992535;28;20161;-69
2022/09/11 03:04:56;;;;;;;13.52;7.57;;;;;;;-144.48;100.00;62369.91;4990423;28;20029;-68
2022/09/11 03:07:24;;;;;;;12.75;7.82;;;;;;;-144.48;100.00;62369.91;4991948;28;20027;-68
2022/09/11 03:09:49;;;;;;;16.93;7.97;;;;;;;-144.48;100.00;62369.91;4990076;28;20029;-66
2022/09/11 03:12:15;;;;;;;14.73;7.47;;;;;;;-144.48;100.00;62369.91;4992128;28;20034;-67
2022/09/11 03:14:40;;;;;;;11.68;7.10;;;;;;;-144.48;100.00;62369.91;4991850;28;20029;-68
2022/09/11 03:17:06;;;;;;;14.93;7.80;;;;;;;-144.48;100.00;62369.91;4990133;28;20109;-67
2022/09/11 03:19:31;;;;;;;13.40;7.90;;;;;;;-144.48;100.00;62369.91;4990999;28;20018;-69
2022/09/11 03:21:56;;;;;;;16.42;7.55;;;;;;;-144.48;100.00;62369.91;4991799;28;20027;-70
2022/09/11 03:24:22;;;;;;;14.35;8.20;;;;;;;-144.48;100.00;62369.91;4990865;28;20018;-69
2022/09/11 03:26:47;;;;;;;14.95;7.10;;;;;;;-144.48;100.00;62369.91;4991758;28;20045;-67
2022/09/11 03:29:13;;;;;;;14.00;8.57;;;;;;;-144.48;100.00;62369.91;4991714;28;20412;-70
2022/09/11 03:31:38;;;;;;;15.50;7.90;;;;;;;-144.48;100.00;62369.91;4991909;28;20038;-69
2022/09/11 03:34:05;;;;;;;13.60;7.45;;;;;;;-144.48;100.00;62369.91;4994081;28;20037;-69
2022/09/11 03:36:33;;;;;;;11.10;7.05;;;;;;;-144.48;100.00;62369.91;4989839;28;20472;-68
2022/09/11 03:38:58;;;;;;;22.33;8.47;;;;;;;-144.48;100.00;62369.91;4990669;28;20117;-69
2022/09/11 03:41:25;;;;;;;12.45;7.32;;;;;;;-144.48;100.00;62369.91;4991636;28;20109;-68
2022/09/11 03:43:50;;;;;;;13.77;7.82;;;;;;;-144.48;100.00;62369.91;4991839;28;20077;-70
2022/09/11 03:46:16;;;;;;;14.18;7.63;;;;;;;-144.48;100.00;62369.91;4991059;28;20377;-71
2022/09/11 03:48:42;;;;;;;14.98;7.15;;;;;;;-144.48;100.00;62369.91;4991572;28;20100;-71
2022/09/11 03:51:07;;;;;;;14.38;7.65;;;;;;;-144.48;100.00;62369.91;4990671;28;20443;-67
2022/09/11 03:53:34;;;;;;;12.57;8.13;;;;;;;-144.48;100.00;62369.91;4990716;28;20431;-70
2022/09/11 03:56:00;;;;;;;15.90;8.07;;;;;;;-144.48;100.00;62369.91;4991541;28;20034;-69
2022/09/11 03:58:25;;;;;;;16.17;7.35;;;;;;;-144.48;100.00;62369.91;4988209;28;20064;-69
2022/09/11 04:00:51;;;;;;;14.13;7.78;;;;;;;-144.48;100.00;62369.91;4991404;28;20025;-70
2022/09/11 04:03:16;;;;;;;18.65;7.45;;;;;;;-144.48;100.00;62369.91;4991442;28;20034;-69
2022/09/11 04:05:43;;;;;;;17.85;8.02;;;;;;;-144.48;100.00;62369.91;4989108;28;20401;-69
2022/09/11 04:08:12;;;;;;;13.55;7.80;;;;;;;-144.48;100.00;62369.91;4989681;28;20060;-69
2022/09/11 04:10:37;;;;;;;13.27;8.43;;;;;;;-144.48;100.00;62369.91;4990598;28;20033;-68
2022/09/11 04:13:04;;;;;;;14.70;8.68;;;;;;;-144.48;100.00;62369.91;4990729;28;20140;-67
2022/09/11 04:15:31;;;;;;;15.35;8.40;;;;;;;-144.48;100.00;62369.91;4991203;28;20420;-66
2022/09/11 04:17:57;;;;;;;17.88;8.88;;;;;;;-144.48;100.00;62369.91;4990496;28;20554;-66
2022/09/11 04:20:23;;;;;;;14.25;8.27;;;;;;;-144.48;100.00;62369.91;4989410;28;20058;-67
2022/09/11 04:22:49;;;;;;;17.73;7.70;;;;;;;-144.48;100.00;62369.91;4987295;28;20097;-67
2022/09/11 04:25:14;;;;;;;14.48;8.05;;;;;;;-144.48;100.00;62369.91;4989891;28;20419;-66
2022/09/11 04:27:39;;;;;;;15.32;7.88;;;;;;;-144.48;100.00;62369.91;4990247;28;20046;-66
2022/09/11 04:30:06;;;;;;;14.20;7.93;;;;;;;-144.48;100.00;62369.91;4990449;28;20109;-66
2022/09/11 04:32:33;;;;;;;15.63;7.90;;;;;;;-144.48;100.00;62369.91;4990822;28;20035;-66
2022/09/11 04:35:00;;;;;;;17.48;8.57;;;;;;;-144.48;100.00;62369.91;4992878;28;20109;-66
2022/09/11 04:37:27;;;;;;;16.38;8.32;;;;;;;-144.48;100.00;62369.91;4989614;28;20033;-67
2022/09/11 04:39:53;;;;;;;14.95;7.85;;;;;;;-144.48;100.00;62369.91;4989855;28;20026;-67
2022/09/11 04:42:18;;;;;;;14.95;7.30;;;;;;;-144.48;100.00;62369.91;4990573;28;20464;-67
2022/09/11 04:44:45;;;;;;;14.38;7.80;;;;;;;-144.48;100.00;62369.91;4990217;28;20058;-67
2022/09/11 04:47:11;;;;;;;12.10;7.22;;;;;;;-144.48;100.00;62369.91;4989732;28;20030;-67
2022/09/11 04:49:36;;;;;;;14.57;8.40;;;;;;;-144.48;100.00;62369.91;4989233;28;20034;-67
2022/09/11 04:52:04;;;;;;;14.68;7.60;;;;;;;-144.48;100.00;62369.91;4990032;28;20590;-67
2022/09/11 04:54:32;;;;;;;13.27;7.43;;;;;;;-144.48;100.00;62369.91;4989552;28;20030;-67
2022/09/11 04:56:58;;;;;;;11.90;7.70;;;;;;;-144.48;100.00;62369.91;4989246;28;20101;-68
2022/09/11 04:59:23;;;;;;;14.80;7.35;;;;;;;-144.48;100.00;62369.91;4990426;28;20113;-68
2022/09/11 05:01:49;;;;;;;14.95;7.97;;;;;;;-144.48;100.00;62369.91;4990180;28;20026;-67
2022/09/11 05:04:16;;;;;;;16.35;7.68;;;;;;;-144.48;100.00;62369.91;4990160;28;20631;-68
2022/09/11 05:06:44;;;;;;;14.18;7.45;;;;;;;-144.48;100.00;62369.91;4987166;28;20060;-68
2022/09/11 05:09:10;;;;;;;15.95;8.38;;;;;;;-144.48;100.00;62369.91;4988285;28;20026;-66
2022/09/11 05:11:38;;;;;;;14.82;7.82;;;;;;;-144.48;100.00;62369.91;4990283;28;20110;-67
2022/09/11 05:14:03;;;;;;;16.17;8.83;;;;;;;-144.48;100.00;62369.91;4990120;28;20033;-66
2022/09/11 05:16:29;;;;;;;14.80;8.48;;;;;;;-144.48;100.00;62369.91;4989462;28;20026;-68
2022/09/11 05:18:56;;;;;;;15.73;8.27;;;;;;;-144.48;100.00;62369.91;4989758;28;20026;-67
2022/09/11 05:21:23;;;;;;;18.27;8.95;;;;;;;-144.48;100.00;62369.91;4988987;28;20080;-68
2022/09/11 05:23:51;;;;;;;14.05;7.90;;;;;;;-144.48;100.00;62369.91;4979720;28;20042;-67
2022/09/11 05:26:22;;;;;;;14.13;8.27;;;;;;;-144.48;100.00;62369.91;4979877;28;20107;-68
2022/09/11 05:28:55;;;;;;;15.43;8.30;;;;;;;-144.48;100.00;62369.91;4989640;28;20026;-67
2022/09/11 05:31:21;;;;;;;20.08;9.57;;;;;;;-144.48;100.00;62369.91;4981245;28;20029;-67
2022/09/11 05:33:47;;;;;;;19.25;9.20;;;;;;;-144.48;100.00;62369.91;4993287;28;20038;-67
2022/09/11 05:36:14;;;;;;;19.70;8.88;;;;;;;-144.48;100.00;62369.91;4988334;28;20109;-66
2022/09/11 05:38:40;;;;;;;17.45;10.00;;;;;;;-144.48;100.00;62369.91;4987440;28;20056;-66
2022/09/11 05:41:10;;;;;;;16.75;10.10;;;;;;;-144.48;100.00;62369.91;4989796;28;20018;-66
2022/09/11 05:43:36;;;;;;;19.73;9.30;;;;;;;-144.48;100.00;62369.91;4989751;28;20030;-66
2022/09/11 05:46:02;;;;;;;15.52;9.43;;;;;;;-144.48;100.00;62369.91;4989807;28;20034;-66
2022/09/11 05:48:29;;;;;;;18.58;10.18;;;;;;;-144.48;100.00;62369.91;4988777;28;20022;-67
2022/09/11 05:51:05;;;;;;;17.77;10.10;;;;;;;-144.48;100.00;62369.91;4988616;28;20448;-67
2022/09/11 05:53:32;;;;;;;21.90;10.68;;;;;;;-144.48;100.00;62369.91;4988024;28;20060;-67
2022/09/11 05:55:59;;;;;;;21.08;11.35;;;;;;;-144.48;100.00;62369.91;4990199;28;20019;-66
2022/09/11 05:58:30;;;;;;;20.45;11.38;;;;;;;-144.48;100.00;62369.91;4992278;28;20034;-69
2022/09/11 06:01:17;;;;;;;24.85;13.02;;;;;;;-144.48;100.00;62369.91;4993302;28;20040;-67
2022/09/11 06:03:43;;;;;;;26.35;12.48;;;;;;;-144.48;100.00;62369.91;4983364;28;20496;-67
2022/09/11 06:06:11;;;;;;;20.67;11.93;;;;;;;-144.48;100.00;62369.91;4991887;28;20037;-70
2022/09/11 06:08:37;;;;;;;19.98;11.55;;;;;;;-144.48;100.00;62369.91;4991213;28;20034;-68
2022/09/11 06:11:06;;;;;;;21.48;12.32;;;;;;;-144.48;100.00;62369.91;4991425;28;20038;-67
2022/09/11 06:13:34;;;;;;;20.55;12.25;;;;;;;-144.48;100.00;62369.91;4992562;28;20126;-67
2022/09/11 06:16:01;;;;;;;20.90;11.85;;;;;;;-144.48;100.00;62369.91;4992144;28;20048;-69
2022/09/11 06:18:27;;;;;;;20.25;12.60;;;;;;;-144.48;100.00;62369.91;4991500;28;20026;-68
2022/09/11 06:21:00;;;;;;;20.63;12.65;;;;;;;-144.48;100.00;62369.91;4991279;28;20037;-69
2022/09/11 06:23:26;;;;;;;21.15;12.38;;;;;;;-144.48;100.00;62369.91;4984421;28;20034;-67
2022/09/11 06:25:53;;;;;;;24.17;13.43;;;;;;;-144.48;100.00;62369.91;4987787;28;20511;-68
2022/09/11 06:28:21;;;;;;;22.60;13.55;;;;;;;-144.48;100.00;62369.91;4987186;28;20018;-68
2022/09/11 06:30:50;;;;;;;23.88;13.25;;;;;;;-144.48;100.00;62369.91;4988004;28;20037;-69
2022/09/11 06:33:19;;;;;;;20.38;13.10;;;;;;;-144.48;100.00;62369.91;4985902;28;20026;-68
2022/09/11 06:35:55;;;;;;;23.23;15.35;;;;;;;-144.48;100.00;62369.91;4995384;28;20535;-66
2022/09/11 06:38:20;;;;;;;28.30;14.65;;;;;;;-144.48;100.00;62369.91;4992418;28;20105;-69
2022/09/11 06:40:45;;;;;;;24.33;14.82;;;;;;;-144.48;100.00;62369.91;4992790;28;20491;-66
2022/09/11 06:43:11;;;;;;;28.73;15.63;;;;;;;-144.48;100.00;62369.91;4991364;28;20034;-67
2022/09/11 06:45:36;;;;;;;28.65;17.70;;;;;;;-144.48;100.00;62369.91;4994075;28;20018;-68
2022/09/11 06:48:03;;;;;;;29.52;16.92;;;;;;;-144.48;100.00;62369.91;4992007;28;20384;-68
2022/09/11 06:50:28;;;;;;;26.60;14.82;;;;;;;-144.48;100.00;62369.91;4993085;28;20038;-67
2022/09/11 06:52:54;;;;;;;30.75;15.15;;;;;;;-144.48;100.00;62369.91;4989120;28;20037;-68
2022/09/11 06:55:19;;;;;;;29.08;15.10;;;;;;;-144.48;100.00;62369.91;4993779;28;20034;-67
2022/09/11 06:57:44;;;;;;;30.63;15.30;;;;;;;-144.48;100.00;62369.91;4994163;28;20034;-66
2022/09/11 07:00:10;;;;;;;34.97;16.98;;;;;;;-144.48;100.00;62369.91;4989712;28;20018;-68
2022/09/11 07:02:35;;;;;;;34.47;15.85;;;;;;;-144.48;100.00;62369.91;4992660;28;20589;-69
2022/09/11 07:05:01;;;;;;;33.38;16.77;;;;;;;-144.48;100.00;62369.91;4996678;28;20030;-67
2022/09/11 07:07:26;;;;;;;37.83;17.98;;;;;;;-144.48;100.00;62369.91;4990773;28;20037;-67
2022/09/11 07:09:51;;;;;;;38.55;18.17;;;;;;;-144.48;100.00;62369.91;4993007;28;20794;-67
2022/09/11 07:12:18;;;;;;;37.80;18.30;;;;;;;-144.48;100.00;62369.91;4992460;28;20077;-66
2022/09/11 07:14:43;;;;;;;44.13;19.00;;;;;;;-144.48;100.00;62369.91;4995075;28;20035;-67
2022/09/11 07:17:08;;;;;;;39.58;18.48;;;;;;;-144.48;100.00;62369.91;4991272;28;20080;-68
2022/09/11 07:19:34;;;;;;;34.65;17.58;;;;;;;-144.48;100.00;62369.91;4992828;28;20041;-68
2022/09/11 07:21:59;;;;;;;31.23;17.20;;;;;;;-144.48;100.00;62369.91;4989872;28;20030;-67
2022/09/11 07:24:25;;;;;;;34.67;18.83;;;;;;;-144.48;100.00;62369.91;4989221;28;20053;-65
2022/09/11 07:26:50;;;;;;;38.08;19.45;;;;;;;-144.48;100.00;62369.91;4991864;28;20040;-68
2022/09/11 07:29:16;;;;;;;37.28;20.15;;;;;;;-144.48;100.00;62369.91;4992997;28;20109;-67
2022/09/11 07:31:42;;;;;;;37.10;17.77;;;;;;;-144.48;100.00;62369.91;4993206;28;20033;-67
2022/09/11 07:34:07;;;;;;;33.72;16.40;;;;;;;-144.48;100.00;62369.91;4992117;28;20365;-69
2022/09/11 07:36:34;;;;;;;31.70;15.63;;;;;;;-144.48;100.00;62369.91;4991168;28;20673;-67
2022/09/11 07:39:00;;;;;;;31.67;15.02;;;;;;;-144.48;100.00;62369.91;4994659;28;20042;-67
2022/09/11 07:41:26;;;;;;;27.92;13.10;;;;;;;-144.48;100.00;62369.91;4995179;28;20042;-69
2022/09/11 07:43:54;;;;;;;29.00;14.27;;;;;;;-144.48;100.00;62369.91;4991148;28;20030;-67
2022/09/11 07:46:20;;;;;;;23.80;13.48;;;;;;;-144.48;100.00;62369.91;4993218;28;20116;-69
2022/09/11 07:48:46;;;;;;;32.20;12.88;;;;;;;-144.48;100.00;62369.91;4993527;28;20100;-67
2022/09/11 07:51:13;;;;;;;27.10;12.55;;;;;;;-144.48;100.00;62369.91;4988353;28;20461;-68
2022/09/11 07:53:41;;;;;;;22.77;12.40;;;;;;;-144.48;100.00;62369.91;4991976;28;20101;-66
2022/09/11 07:56:13;;;;;;;19.23;11.05;;;;;;;-144.48;100.00;62369.91;4992589;28;20534;-67
2022/09/11 07:58:40;;;;;;;22.58;11.38;;;;;;;-144.48;100.00;62369.91;4990226;28;20460;-68
2022/09/11 08:01:08;;;;;;;32.63;13.02;;;;;;;-144.48;100.00;62369.91;4992184;28;20056;-67
2022/09/11 08:03:34;;;;;;;25.27;12.10;;;;;;;-144.48;100.00;62369.91;4989956;28;20046;-68
2022/09/11 08:06:02;;;;;;;27.05;11.88;;;;;;;-144.48;100.00;62369.91;4990193;28;20133;-67
2022/09/11 08:08:28;;;;;;;21.00;11.77;;;;;;;-144.48;100.00;62369.91;4994525;28;20032;-68
2022/09/11 08:10:55;;;;;;;26.02;11.85;;;;;;;-144.48;100.00;62369.91;4993179;28;20748;-67
2022/09/11 08:13:21;;;;;;;21.35;10.50;;;;;;;-144.48;100.00;62369.91;4987590;28;20045;-67
2022/09/11 08:15:49;;;;;;;25.10;12.55;;;;;;;-144.48;100.00;62369.91;4990750;28;20085;-69
2022/09/11 08:18:15;;;;;;;25.63;11.75;;;;;;;-144.48;100.00;62369.91;4991132;28;20026;-67
2022/09/11 08:20:41;;;;;;;22.42;11.55;;;;;;;-144.48;100.00;62369.91;4989316;28;20061;-67
2022/09/11 08:23:07;;;;;;;21.83;10.73;;;;;;;-144.48;100.00;62369.91;4989639;28;20133;-66
2022/09/11 08:25:35;;;;;;;20.35;10.80;;;;;;;-144.48;100.00;62369.91;4992707;28;20022;-69
2022/09/11 08:28:00;;;;;;;21.35;9.95;;;;;;;-144.48;100.00;62369.91;4993253;28;20061;-67
2022/09/11 08:30:26;;;;;;;19.45;9.55;;;;;;;-144.48;100.00;62369.91;4993664;28;20088;-68
2022/09/11 08:32:51;;;;;;;20.55;9.43;;;;;;;-144.48;100.00;62369.91;4990822;28;20100;-68
2022/09/11 08:35:16;;;;;;;23.42;9.82;;;;;;;-144.48;100.00;62369.91;4990609;28;20022;-68
2022/09/11 08:37:42;;;;;;;25.00;9.43;;;;;;;-144.48;100.00;62369.91;4988871;28;20424;-68
2022/09/11 08:40:09;;;;;;;20.90;9.90;;;;;;;-144.48;100.00;62369.91;4993525;28;20061;-68
2022/09/11 08:42:35;;;;;;;21.40;9.80;;;;;;;-144.48;100.00;62369.91;4987165;28;20041;-69
2022/09/11 08:45:01;;;;;;;16.77;8.00;;;;;;;-144.48;100.00;62369.91;4991456;28;20040;-68
2022/09/11 08:47:32;;;;;;;21.00;8.85;;;;;;;-144.48;100.00;62369.91;4989776;28;20034;-68
2022/09/11 08:50:22;;;;;;;19.20;10.20;;;;;;;-144.48;100.00;62369.91;4986224;28;20091;-69
2022/09/11 08:52:48;;;;;;;18.38;9.25;;;;;;;-144.48;100.00;62369.91;4987876;28;20141;-68
2022/09/11 08:55:23;;;;;;;18.25;9.05;;;;;;;-144.48;100.00;62369.91;4990126;28;20041;-66
2022/09/11 08:57:57;;;;;;;20.50;10.40;;;;;;;-144.48;100.00;62369.91;4986128;28;20034;-67
2022/09/11 09:00:29;;;;;;;18.52;9.85;;;;;;;-144.48;100.00;62369.91;4987457;28;20037;-65
2022/09/11 09:03:11;;;;;;;18.08;9.65;;;;;;;-144.48;100.00;62369.91;4986377;28;20064;-66
2022/09/11 09:05:54;;;;;;;19.38;8.80;;;;;;;-144.48;100.00;62369.91;4990345;28;20037;-68
2022/09/11 09:08:20;;;;;;;17.27;9.77;;;;;;;-144.48;100.00;62369.91;4989152;28;20101;-67
2022/09/11 09:10:51;;;;;;;20.63;8.75;;;;;;;-144.48;100.00;62369.91;4988930;28;20030;-68
2022/09/11 09:13:28;;;;;;;17.50;9.65;;;;;;;-144.48;100.00;62369.91;4986135;28;20318;-67
2022/09/11 09:16:44;;;;;;;16.45;8.70;;;;;;;-144.48;100.00;62369.91;4989402;28;20037;-68
2022/09/11 09:19:17;;;;;;;15.13;9.38;;;;;;;-144.48;100.00;62369.91;4973967;28;20436;-68
2022/09/11 09:21:54;;;;;;;16.13;8.45;;;;;;;-144.48;100.00;62369.91;4957156;28;20121;-67
2022/09/11 09:24:20;;;;;;;11.52;7.43;;;;;;;-144.48;100.00;62369.91;4978219;28;20046;-68
2022/09/11 09:26:50;;;;;;;13.32;7.80;;;;;;;-144.48;100.00;62369.91;4988972;28;20034;-68
2022/09/11 09:29:37;;;;;;;17.77;9.70;;;;;;;-144.48;100.00;62369.91;4992485;28;20026;-67
2022/09/11 09:32:22;;;;;;;14.68;9.23;;;;;;;-144.48;100.00;62369.91;4989042;28;20110;-68
2022/09/11 09:34:54;;;;;;;17.15;9.55;;;;;;;-144.48;100.00;62369.91;4986521;28;20038;-68
2022/09/11 09:37:21;;;;;;;15.52;9.02;;;;;;;-144.48;100.00;62369.91;4990899;28;20061;-68
2022/09/11 09:39:48;;;;;;;14.13;8.93;;;;;;;-144.48;100.00;62369.91;4992073;28;20041;-66
2022/09/11 09:42:53;;;;;;;16.23;9.45;;;;;;;-144.48;100.00;62369.91;4988044;28;20049;-67
2022/09/11 09:45:47;;;;;;;14.68;9.10;;;;;;;-144.48;100.00;62369.91;4986932;28;20039;-68
2022/09/11 09:48:13;;;;;;;16.27;9.48;;;;;;;-144.48;100.00;62369.91;4988754;28;20372;-68
2022/09/11 09:50:40;;;;;;;18.55;8.95;;;;;;;-144.48;100.00;62369.91;4988395;28;20514;-68
2022/09/11 09:53:28;;;;;;;17.48;9.05;;;;;;;-144.48;100.00;62369.91;4985963;28;20092;-67
2022/09/11 09:55:55;;;;;;;15.07;8.95;;;;;;;-144.48;100.00;62369.91;4992851;28;20076;-69
2022/09/11 09:58:29;;;;;;;13.35;8.13;;;;;;;-144.48;100.00;62369.91;4987278;28;20043;-68
2022/09/11 10:00:55;;;;;;;18.88;8.45;;;;;;;-144.48;100.00;62369.91;4992873;28;20752;-67
2022/09/11 10:03:22;;;;;;;13.75;7.68;;;;;;;-144.48;100.00;62369.91;4984591;28;20136;-67
2022/09/11 10:05:52;;;;;;;11.88;6.75;;;;;;;-144.48;100.00;62369.91;4991111;28;20026;-68
2022/09/11 10:08:29;;;;;;;15.85;7.28;;;;;;;-144.48;100.00;62369.91;4991340;28;20037;-68
2022/09/11 10:11:03;;;;;;;11.77;6.55;;;;;;;-144.48;100.00;62369.91;4988607;28;20042;-67
2022/09/11 10:13:32;;;;;;;11.68;6.95;;;;;;;-144.48;100.00;62369.91;4988603;28;20069;-69
2022/09/11 10:16:00;;;;;;;12.55;6.57;;;;;;;-144.48;100.00;62369.91;4987737;28;20038;-69
2022/09/11 10:18:29;;;;;;;14.98;6.20;;;;;;;-144.48;100.00;62369.91;4987058;28;20039;-69
2022/09/11 10:21:13;;;;;;;11.65;6.32;;;;;;;-144.48;100.00;62369.91;4986554;28;20045;-67
2022/09/11 10:23:45;;;;;;;11.90;7.07;;;;;;;-144.48;100.00;62369.91;4984514;28;20019;-70
2022/09/11 10:26:15;;;;;;;13.95;7.57;;;;;;;-144.48;100.00;62369.91;4987073;28;20046;-69
2022/09/11 10:28:41;;;;;;;14.82;8.65;;;;;;;-144.48;100.00;62369.91;4992181;28;20022;-69
2022/09/11 10:31:07;;;;;;;13.90;8.15;;;;;;;-144.48;100.00;62369.91;4993638;28;20419;-68
2022/09/11 10:33:37;;;;;;;13.18;7.63;;;;;;;-144.48;100.00;62369.91;4986300;28;20030;-70
2022/09/11 10:36:07;;;;;;;15.05;7.95;;;;;;;-144.48;100.00;62369.91;4991953;28;20101;-68
2022/09/11 10:38:44;;;;;;;15.00;8.48;;;;;;;-144.48;100.00;62369.91;4994489;28;20030;-69
2022/09/11 10:41:12;;;;;;;15.63;8.23;;;;;;;-144.48;100.00;62369.91;4986587;28;20606;-69
2022/09/11 10:44:00;;;;;;;16.30;8.27;;;;;;;-144.48;100.00;62369.91;4994298;28;20018;-70
2022/09/11 10:46:39;;;;;;;15.45;8.18;;;;;;;-144.48;100.00;62369.91;4996658;28;20105;-71
2022/09/11 10:49:04;;;;;;;18.23;8.55;;;;;;;-144.48;100.00;62369.91;4992243;28;20027;-69
2022/09/11 10:51:35;;;;;;;16.60;8.38;;;;;;;-144.48;100.00;62369.91;4998457;28;20042;-69
2022/09/11 10:54:12;;;;;;;17.98;8.93;;;;;;;-144.48;100.00;62369.91;4990806;28;20030;-72
2022/09/11 10:57:04;;;;;;;14.63;8.52;;;;;;;-144.48;100.00;62369.91;4995186;28;20048;-68
2022/09/11 10:59:47;;;;;;;15.98;8.48;;;;;;;-144.48;100.00;62369.91;4992011;28;20046;-66
2022/09/11 11:02:27;;;;;;;18.50;9.63;;;;;;;-144.48;100.00;62369.91;4990562;28;20034;-69
2022/09/11 11:04:55;;;;;;;18.42;8.82;;;;;;;-144.48;100.00;62369.91;4994208;28;20049;-70
2022/09/11 11:07:43;;;;;;;21.75;10.23;;;;;;;-144.48;100.00;62369.91;4994296;28;20107;-68
2022/09/11 11:10:39;;;;;;;21.20;9.98;;;;;;;-144.48;100.00;62369.91;4995498;28;20018;-70
2022/09/11 11:13:19;;;;;;;21.00;10.90;;;;;;;-144.48;100.00;62369.91;4993208;28;20335;-71